TimeEST,TemperatureF,Dew PointF,Humidity,Sea Level PressureIn,VisibilityMPH,Wind Direction,Wind SpeedMPH,Gust SpeedMPH,PrecipitationIn,Events,Conditions,WindDirDegrees,DateUTC
12:51 AM,19.9,3.9,50,30.28,-9999.0,North,11.5,23.0,N/A,,Unknown,360,2014-01-03 05:51:00
1:51 AM,14.0,-0.9,52,30.28,-9999.0,Variable,4.6,-,N/A,,Unknown,0,2014-01-03 06:51:00
2:51 AM,21.0,3.9,48,30.30,-9999.0,North,8.1,23.0,N/A,,Unknown,350,2014-01-03 07:51:00
3:51 AM,19.9,3.0,48,30.33,-9999.0,NNW,8.1,17.3,N/A,,Unknown,340,2014-01-03 08:51:00
4:51 AM,17.1,-0.9,45,30.33,-9999.0,NNW,5.8,-,0.01,,Unknown,340,2014-01-03 09:51:00
5:51 AM,18.0,-0.9,44,30.35,-9999.0,North,6.9,-,N/A,,Unknown,360,2014-01-03 10:51:00
8:51 AM,12.9,1.0,59,30.39,-9999.0,West,5.8,-,N/A,,Unknown,270,2014-01-03 13:51:00
9:51 AM,15.1,-0.9,49,30.40,-9999.0,WSW,6.9,-,N/A,,Unknown,250,2014-01-03 14:51:00
10:51 AM,25.0,-2.9,30,30.41,-9999.0,SW,8.1,-,0.01,,Unknown,220,2014-01-03 15:51:00
11:51 AM,10.0,-5.1,51,30.41,-9999.0,WSW,9.2,17.3,N/A,,Unknown,250,2014-01-03 16:51:00
12:51 PM,19.9,-4.0,35,30.37,-9999.0,SW,6.9,-,N/A,,Unknown,230,2014-01-03 17:51:00
1:51 PM,28.0,-4.0,25,30.36,-9999.0,SW,5.8,-,N/A,,Unknown,220,2014-01-03 18:51:00
2:51 PM,32.0,-2.9,22,30.32,-9999.0,Calm,Calm,-,N/A,,Unknown,0,2014-01-03 19:51:00
3:51 PM,32.0,-2.0,23,30.30,-9999.0,SSE,4.6,-,N/A,,Unknown,160,2014-01-03 20:51:00
4:51 PM,28.0,-2.9,26,30.29,-9999.0,South,3.5,-,N/A,,Unknown,170,2014-01-03 21:51:00
5:51 PM,27.0,-2.9,27,30.29,-9999.0,Variable,4.6,-,N/A,,Unknown,0,2014-01-03 22:51:00
6:51 PM,28.9,-2.0,26,30.26,-9999.0,South,6.9,-,N/A,,Unknown,170,2014-01-03 23:51:00
7:51 PM,27.0,1.0,33,30.22,-9999.0,Variable,6.9,16.1,N/A,,Unknown,0,2014-01-04 00:51:00
8:51 PM,27.0,1.9,34,30.18,-9999.0,South,8.1,-,N/A,,Unknown,170,2014-01-04 01:51:00
9:51 PM,26.1,-0.0,32,30.14,-9999.0,South,8.1,21.9,N/A,,Unknown,180,2014-01-04 02:51:00
10:51 PM,26.1,-0.0,32,30.08,-9999.0,South,11.5,20.7,N/A,,Unknown,180,2014-01-04 03:51:00
11:51 PM,26.1,1.0,34,30.07,-9999.0,South,9.2,20.7,N/A,,Unknown,180,2014-01-04 04:51:00